Aérodrome :
LOGIN :

S'inscrire | Disclaimer

   EN    FR    IT 

 










Légende :    VFR   VFR Marginal   IFR   IFR Intensif   IFR Très Intensif
Visi : 
Plafond : 
>= 8 km
>= 3000ft
5 à 8 km
1000 à 3000 ft
1500m à 5 km
500 à 1000 ft
800 à 1500m
200 à 500 ft
< 800m
< 200 ft
Symboles :   Orages  Brouillard  Fortes neiges  Fortes précipitations  Vent > 20 kt
SIGMETs :   Divers  Orages  Givrage  Turbulence  Onde Orograph.  Cendres Volcan.







- Altitude de l'aérodrome : 461 ft
- Code IATA : WIE


ETOU - Wiesbaden Army

DERNIER METAR :
  • 151356Z AUTO 29004KT 9999 CLR 27/10 A3017 RMK AO2 SLP215 T02700102 $

METARs EXPIRÉS :
  • 151256Z AUTO 24005KT 9999 CLR 26/11 A3019 RMK AO2 SLP222 T02600110 $
  • 151156Z AUTO 24003KT 9999 CLR 25/12 A3022 RMK AO2 SLP232 T02480117 10248 20106 57016 $

TAF TAF ETOU
Valide du 15 à 11h jusqu'au 16 à 17h UTC


151107Z 1511/1617 VRB06KT 9999 SKC QNH3019INS
BECMG 1607/1608 VRB06KT 9999 FEW040 SCT050 QNH3015INS
BECMG 1616/1617 34009KT 9999 BKN040 QNH3011INS TX26/1515Z TN09/1605Z
Pas de NOTAMs connus pour ce terrain.



MET'MAP, la Météo Aéronautique d'un coup d'oeil ! - Copyright ORBIFLY Décembre 2007 - Disclaimer

ORBIFLY MET'MAP TEAM :

Programmation & Développement : Alexandra Zaïnal
Conception & Développement : Baudouin d'Aumeries
Co-Programmation & Développement : Marc-Olivier Méhu
Soutien technique & logistique : Manuel Goepfert

Contact : metmap@orbifly.com




SOURCES & CREDITS :

   NOAA